createdAt,value
2023-09-20T00:04:44.724Z,100.00
2023-09-20T00:09:52.195Z,100.00
2023-09-20T00:15:01.696Z,100.00
2023-09-20T00:20:14.323Z,100.00
2023-09-20T00:25:22.170Z,100.00
2023-09-20T00:30:29.556Z,100.00
2023-09-20T00:35:42.143Z,100.00
2023-09-20T00:40:50.386Z,100.00
2023-09-20T00:46:00.415Z,100.00
2023-09-20T00:51:08.855Z,100.00
2023-09-20T00:56:17.891Z,100.00
2023-09-20T01:01:28.457Z,100.00
2023-09-20T01:06:37.252Z,100.00
2023-09-20T01:11:47.846Z,100.00
2023-09-20T01:16:55.785Z,100.00
2023-09-20T01:22:05.244Z,100.00
2023-09-20T01:27:14.766Z,100.00
2023-09-20T01:32:22.553Z,100.00
2023-09-20T01:37:30.233Z,100.00
2023-09-20T01:42:37.796Z,100.00
2023-09-20T01:47:46.559Z,100.00
2023-09-20T01:52:56.274Z,100.00
2023-09-20T01:58:07.538Z,100.00
2023-09-20T02:03:18.997Z,100.00
2023-09-20T02:08:28.065Z,100.00
2023-09-20T02:13:35.507Z,100.00
2023-09-20T02:18:45.937Z,100.00
2023-09-20T02:23:56.305Z,100.00
2023-09-20T02:29:04.933Z,100.00
2023-09-20T02:34:14.612Z,100.00
2023-09-20T02:39:22.144Z,100.00
2023-09-20T02:44:30.851Z,100.00
2023-09-20T02:49:41.855Z,100.00
2023-09-20T02:54:50.022Z,100.00
2023-09-20T02:59:59.596Z,100.00
2023-09-20T03:05:07.611Z,100.00
2023-09-20T03:10:17.843Z,100.00
2023-09-20T03:15:29.849Z,100.00
2023-09-20T03:20:40.019Z,100.00
2023-09-20T03:25:48.701Z,100.00
2023-09-20T03:30:57.390Z,100.00
2023-09-20T03:36:15.870Z,100.00
2023-09-20T03:41:23.646Z,100.00
2023-09-20T03:46:31.078Z,100.00
2023-09-20T03:51:39.049Z,100.00
2023-09-20T03:56:49.517Z,100.00
2023-09-20T04:01:57.380Z,100.00
2023-09-20T04:07:06.125Z,100.00
2023-09-20T04:12:14.192Z,100.00
2023-09-20T04:17:23.307Z,100.00
2023-09-20T04:22:32.638Z,100.00
2023-09-20T04:27:40.541Z,100.00
2023-09-20T04:32:48.210Z,100.00
2023-09-20T04:37:58.122Z,100.00
2023-09-20T04:43:08.089Z,100.00
2023-09-20T04:48:15.700Z,100.00
2023-09-20T04:53:23.676Z,100.00
2023-09-20T04:58:31.234Z,100.00
2023-09-20T05:03:41.272Z,100.00
2023-09-20T05:08:51.571Z,100.00
2023-09-20T05:13:59.492Z,100.00
2023-09-20T05:19:06.665Z,100.00
2023-09-20T05:24:13.985Z,100.00
2023-09-20T05:29:21.677Z,100.00
2023-09-20T05:34:30.221Z,100.00
2023-09-20T05:39:38.288Z,100.00
2023-09-20T05:44:45.797Z,100.00
2023-09-20T05:49:53.268Z,100.00
2023-09-20T05:55:01.020Z,100.00
2023-09-20T06:00:13.911Z,100.00
2023-09-20T06:05:22.099Z,100.00
2023-09-20T06:10:30.894Z,100.00
2023-09-20T06:15:39.659Z,100.00
2023-09-20T06:20:52.643Z,100.00
2023-09-20T06:26:07.050Z,100.00
2023-09-20T06:31:17.849Z,100.00
2023-09-20T06:36:26.169Z,100.00
2023-09-20T06:41:33.731Z,100.00
2023-09-20T06:46:44.108Z,100.00
2023-09-20T06:51:51.883Z,100.00
2023-09-20T06:57:04.440Z,100.00
2023-09-20T07:02:13.838Z,100.00
2023-09-20T07:07:21.762Z,100.00
2023-09-20T07:12:30.504Z,100.00
2023-09-20T07:17:42.546Z,100.00
2023-09-20T07:22:52.892Z,99.07
2023-09-20T07:28:01.243Z,98.01
2023-09-20T07:33:13.792Z,96.84
2023-09-20T07:38:28.184Z,96.53
2023-09-20T07:43:39.410Z,94.89
2023-09-20T07:48:50.842Z,93.61
2023-09-20T07:54:00.186Z,93.81
2023-09-20T07:59:08.552Z,92.36
2023-09-20T08:04:19.671Z,88.93
2023-09-20T08:09:27.237Z,86.85
2023-09-20T08:14:34.786Z,84.74
2023-09-20T08:19:44.257Z,82.73
2023-09-20T08:25:09.486Z,82.32
2023-09-20T08:30:35.336Z,80.05
2023-09-20T08:36:00.499Z,79.18
2023-09-20T08:41:27.142Z,78.52
2023-09-20T08:46:55.957Z,79.10
2023-09-20T08:52:28.948Z,78.50
2023-09-20T08:57:55.023Z,77.27
2023-09-20T09:03:05.625Z,76.81
2023-09-20T09:08:15.583Z,76.43
2023-09-20T09:13:23.698Z,74.61
2023-09-20T09:18:31.317Z,74.30
2023-09-20T09:23:40.972Z,72.51
2023-09-20T09:28:49.092Z,73.03
2023-09-20T09:33:57.837Z,72.47
2023-09-20T09:39:32.339Z,73.00
2023-09-20T09:44:53.007Z,72.64
2023-09-20T09:50:01.267Z,71.10
2023-09-20T09:55:10.757Z,70.73
2023-09-20T10:00:22.333Z,70.23
2023-09-20T10:05:31.252Z,69.75
2023-09-20T10:10:39.039Z,70.46
2023-09-20T10:15:47.525Z,69.83
2023-09-20T10:21:06.486Z,67.26
2023-09-20T10:26:18.632Z,65.53
2023-09-20T10:31:33.850Z,66.27
2023-09-20T10:36:54.285Z,66.24
2023-09-20T10:42:12.580Z,66.30
2023-09-20T10:47:23.293Z,66.22
2023-09-20T10:53:00.617Z,65.74
2023-09-20T10:58:10.330Z,66.32
2023-09-20T11:03:24.103Z,65.97
2023-09-20T11:08:32.405Z,63.88
2023-09-20T11:13:40.024Z,63.82
2023-09-20T11:18:48.968Z,63.59
2023-09-20T11:23:56.709Z,63.64
2023-09-20T11:29:07.501Z,64.54
2023-09-20T11:34:15.524Z,64.19
2023-09-20T11:39:29.686Z,62.41
2023-09-20T11:44:41.258Z,62.28
2023-09-20T11:49:52.444Z,62.24
2023-09-20T11:55:05.429Z,62.13
2023-09-20T12:00:19.725Z,62.12
2023-09-20T12:05:27.422Z,62.82
2023-09-20T12:10:35.348Z,61.65
2023-09-20T12:15:45.365Z,61.69
2023-09-20T12:20:53.111Z,61.86
2023-09-20T12:26:01.131Z,61.07
2023-09-20T12:31:10.349Z,61.06
2023-09-20T12:36:17.908Z,62.74
2023-09-20T12:41:27.455Z,62.23
2023-09-20T12:46:35.238Z,61.14
2023-09-20T12:51:42.850Z,60.89
2023-09-20T12:56:52.260Z,60.72
2023-09-20T13:02:01.574Z,60.52
2023-09-20T13:07:10.043Z,60.94
2023-09-20T13:12:18.095Z,61.04
2023-09-20T13:17:27.209Z,61.01
2023-09-20T13:22:34.848Z,59.93
2023-09-20T13:27:45.623Z,59.32
2023-09-20T13:32:54.438Z,59.16
2023-09-20T13:38:01.928Z,59.05
2023-09-20T13:43:15.508Z,58.50
2023-09-20T13:48:24.696Z,58.81
2023-09-20T13:53:32.481Z,59.34
2023-09-20T13:58:41.484Z,59.96
2023-09-20T14:03:49.217Z,58.99
2023-09-20T14:08:59.294Z,59.54
2023-09-20T14:14:08.463Z,59.74
2023-09-20T14:23:45.947Z,59.86
2023-09-20T14:28:54.052Z,60.18
2023-09-20T14:34:01.896Z,60.37
2023-09-20T14:39:09.812Z,60.29
2023-09-20T14:44:17.920Z,60.39
2023-09-20T14:49:25.935Z,61.20
2023-09-20T14:54:37.395Z,62.18
2023-09-20T14:59:44.907Z,62.36
2023-09-20T15:04:53.593Z,61.48
2023-09-20T15:10:02.083Z,61.68
2023-09-20T15:15:14.824Z,61.53
2023-09-20T15:20:22.591Z,61.68
2023-09-20T15:25:32.346Z,62.38
2023-09-20T15:30:41.592Z,62.65
2023-09-20T15:35:49.275Z,62.35
2023-09-20T15:40:56.872Z,63.58
2023-09-20T15:46:05.162Z,63.91
2023-09-20T15:51:13.157Z,63.77
2023-09-20T15:56:20.817Z,64.10
2023-09-20T16:01:29.807Z,64.50
2023-09-20T16:06:38.090Z,66.40
2023-09-20T16:11:49.524Z,67.47
2023-09-20T16:16:57.557Z,68.02
2023-09-20T16:23:20.097Z,68.22
2023-09-20T16:28:28.179Z,67.13
2023-09-20T16:33:35.760Z,67.88
2023-09-20T16:38:44.576Z,70.70
2023-09-20T16:43:53.249Z,72.35
2023-09-20T16:49:01.314Z,73.19
2023-09-20T16:54:10.758Z,74.10
2023-09-20T16:59:19.165Z,74.41
2023-09-20T17:04:32.915Z,75.30
2023-09-20T17:09:41.233Z,76.46
2023-09-20T17:14:48.638Z,77.79
2023-09-20T17:19:57.322Z,78.28
2023-09-20T17:25:07.021Z,79.73
2023-09-20T17:30:19.061Z,81.05
2023-09-20T17:35:27.576Z,81.33
2023-09-20T17:40:36.822Z,81.88
2023-09-20T17:45:45.057Z,82.77
2023-09-20T17:50:55.810Z,83.19
2023-09-20T17:56:06.017Z,83.36
2023-09-20T18:01:15.609Z,84.01
2023-09-20T18:06:23.573Z,84.50
2023-09-20T18:11:31.606Z,85.12
2023-09-20T18:16:39.609Z,85.98
2023-09-20T18:21:48.420Z,86.43
2023-09-20T18:26:58.771Z,86.80
2023-09-20T18:32:07.238Z,87.49
2023-09-20T18:37:19.392Z,87.91
2023-09-20T18:42:30.131Z,88.80
2023-09-20T18:47:44.080Z,89.65
2023-09-20T18:52:52.694Z,89.67
2023-09-20T18:58:00.244Z,90.04
2023-09-20T19:03:10.392Z,91.63
2023-09-20T19:08:18.702Z,91.13
2023-09-20T19:13:29.445Z,91.38
2023-09-20T19:18:38.252Z,91.22
2023-09-20T19:23:46.156Z,91.97
2023-09-20T19:28:55.746Z,92.67
2023-09-20T19:34:03.614Z,92.10
2023-09-20T19:39:12.231Z,92.88
2023-09-20T19:44:19.875Z,93.59
2023-09-20T19:49:28.413Z,92.63
2023-09-20T19:54:36.884Z,92.96
2023-09-20T19:59:45.069Z,93.08
2023-09-20T20:04:54.216Z,93.78
2023-09-20T20:10:02.779Z,94.52
2023-09-20T20:15:13.299Z,94.76
2023-09-20T20:20:28.485Z,94.26
2023-09-20T20:25:42.230Z,94.48
2023-09-20T20:30:50.830Z,94.68
2023-09-20T20:36:04.880Z,95.19
2023-09-20T20:41:18.904Z,94.91
2023-09-20T20:46:27.503Z,94.83
2023-09-20T20:51:34.703Z,95.42
2023-09-20T20:56:42.698Z,95.78
2023-09-20T21:01:52.660Z,96.29
2023-09-20T21:07:01.607Z,96.73
2023-09-20T21:12:12.979Z,96.21
2023-09-20T21:17:21.401Z,95.55
2023-09-20T21:22:31.831Z,95.51
2023-09-20T21:27:40.305Z,95.59
2023-09-20T21:32:48.632Z,95.80
2023-09-20T21:37:58.052Z,96.53
2023-09-20T21:43:06.726Z,96.86
2023-09-20T21:48:15.309Z,96.45
2023-09-20T21:53:23.964Z,96.74
2023-09-20T21:58:31.938Z,96.49
2023-09-20T22:03:40.130Z,97.02
2023-09-20T22:08:48.248Z,97.01
2023-09-20T22:13:57.097Z,97.03
2023-09-20T22:19:05.435Z,97.65
2023-09-20T22:24:13.171Z,97.06
2023-09-20T22:29:21.695Z,97.30
2023-09-20T22:34:30.111Z,97.43
2023-09-20T22:39:38.645Z,96.59
2023-09-20T22:44:46.454Z,96.76
2023-09-20T22:49:55.404Z,97.19
2023-09-20T22:55:03.168Z,98.10
2023-09-20T23:00:17.876Z,98.19
2023-09-20T23:05:26.774Z,98.21
2023-09-20T23:10:35.130Z,97.72
2023-09-20T23:15:53.327Z,97.85
2023-09-20T23:21:02.247Z,98.53
2023-09-20T23:26:12.261Z,98.03
2023-09-20T23:31:20.040Z,98.19
2023-09-20T23:36:28.083Z,98.14
2023-09-20T23:41:35.831Z,98.04
2023-09-20T23:46:43.292Z,98.25
2023-09-20T23:51:51.027Z,98.88
2023-09-20T23:56:59.385Z,99.10
